sensor_id;sensor_type;location;lat;lon;timestamp;pressure;altitude;pressure_sealevel;temperature;humidity
56142;BME280;42018;48.588;10.836;2023-09-19T00:02:21;96415.78;;;16.60;85.66
56142;BME280;42018;48.588;10.836;2023-09-19T00:05:09;96406.81;;;16.47;86.32
56142;BME280;42018;48.588;10.836;2023-09-19T00:07:57;96419.94;;;16.26;87.70
56142;BME280;42018;48.588;10.836;2023-09-19T00:10:45;96415.63;;;16.48;86.97
56142;BME280;42018;48.588;10.836;2023-09-19T00:13:33;96417.50;;;16.56;86.04
56142;BME280;42018;48.588;10.836;2023-09-19T00:16:21;96428.50;;;16.46;87.19
56142;BME280;42018;48.588;10.836;2023-09-19T00:19:06;96426.25;;;16.31;87.55
56142;BME280;42018;48.588;10.836;2023-09-19T00:21:54;96439.84;;;16.60;86.96
56142;BME280;42018;48.588;10.836;2023-09-19T00:24:39;96434.91;;;16.36;87.02
56142;BME280;42018;48.588;10.836;2023-09-19T00:27:26;96433.34;;;16.35;86.76
56142;BME280;42018;48.588;10.836;2023-09-19T00:30:12;96437.28;;;16.38;87.26
56142;BME280;42018;48.588;10.836;2023-09-19T00:33:07;96435.50;;;16.24;88.15
56142;BME280;42018;48.588;10.836;2023-09-19T00:35:57;96430.88;;;16.56;86.68
56142;BME280;42018;48.588;10.836;2023-09-19T00:38:46;96436.56;;;16.55;85.81
56142;BME280;42018;48.588;10.836;2023-09-19T00:41:32;96428.22;;;16.56;85.67
56142;BME280;42018;48.588;10.836;2023-09-19T00:44:20;96435.63;;;16.59;85.90
56142;BME280;42018;48.588;10.836;2023-09-19T00:47:08;96431.38;;;16.58;86.16
56142;BME280;42018;48.588;10.836;2023-09-19T00:49:54;96435.69;;;16.77;85.27
56142;BME280;42018;48.588;10.836;2023-09-19T00:55:18;96432.88;;;16.42;85.58
56142;BME280;42018;48.588;10.836;2023-09-19T00:58:05;96432.78;;;16.56;85.46
56142;BME280;42018;48.588;10.836;2023-09-19T01:00:57;96432.28;;;16.45;85.59
56142;BME280;42018;48.588;10.836;2023-09-19T01:03:44;96428.94;;;16.39;86.40
56142;BME280;42018;48.588;10.836;2023-09-19T01:06:32;96439.19;;;16.37;86.13
56142;BME280;42018;48.588;10.836;2023-09-19T01:09:17;96444.53;;;16.46;85.98
56142;BME280;42018;48.588;10.836;2023-09-19T01:12:05;96437.75;;;16.40;84.82
56142;BME280;42018;48.588;10.836;2023-09-19T01:14:51;96448.34;;;16.53;84.53
56142;BME280;42018;48.588;10.836;2023-09-19T01:20:39;96443.47;;;16.64;82.51
56142;BME280;42018;48.588;10.836;2023-09-19T01:54:36;96462.63;;;16.49;82.11
56142;BME280;42018;48.588;10.836;2023-09-19T02:05:25;96472.50;;;16.40;83.56
56142;BME280;42018;48.588;10.836;2023-09-19T02:10:47;96486.81;;;16.04;85.07
56142;BME280;42018;48.588;10.836;2023-09-19T02:13:33;96484.09;;;16.26;85.08
56142;BME280;42018;48.588;10.836;2023-09-19T02:16:19;96490.94;;;16.41;84.75
56142;BME280;42018;48.588;10.836;2023-09-19T02:19:07;96481.03;;;16.42;84.51
56142;BME280;42018;48.588;10.836;2023-09-19T02:27:00;96486.13;;;16.21;85.61
56142;BME280;42018;48.588;10.836;2023-09-19T02:40:10;96502.31;;;16.16;86.08
56142;BME280;42018;48.588;10.836;2023-09-19T02:48:19;96509.84;;;15.91;89.73
56142;BME280;42018;48.588;10.836;2023-09-19T02:53:40;96510.84;;;16.26;89.45
56142;BME280;42018;48.588;10.836;2023-09-19T03:07:10;96515.47;;;16.43;89.07
56142;BME280;42018;48.588;10.836;2023-09-19T03:25:37;96530.53;;;16.31;89.71
56142;BME280;42018;48.588;10.836;2023-09-19T03:30:59;96537.19;;;16.42;89.88
56142;BME280;42018;48.588;10.836;2023-09-19T03:33:55;96528.03;;;16.34;90.17
56142;BME280;42018;48.588;10.836;2023-09-19T03:36:40;96532.88;;;16.32;90.07
56142;BME280;42018;48.588;10.836;2023-09-19T03:52:28;96533.97;;;16.62;88.15
56142;BME280;42018;48.588;10.836;2023-09-19T03:55:11;96536.25;;;16.46;88.11
56142;BME280;42018;48.588;10.836;2023-09-19T04:00:32;96537.88;;;16.65;87.48
56142;BME280;42018;48.588;10.836;2023-09-19T04:03:26;96534.84;;;16.49;87.96
56142;BME280;42018;48.588;10.836;2023-09-19T04:06:44;96541.66;;;16.55;87.36
56142;BME280;42018;48.588;10.836;2023-09-19T04:09:34;96541.03;;;16.58;88.05
56142;BME280;42018;48.588;10.836;2023-09-19T04:17:31;96548.00;;;16.37;88.26
56142;BME280;42018;48.588;10.836;2023-09-19T04:25:17;96561.84;;;16.39;87.51
56142;BME280;42018;48.588;10.836;2023-09-19T04:30:48;96562.38;;;16.49;88.20
56142;BME280;42018;48.588;10.836;2023-09-19T04:36:05;96562.28;;;16.32;88.25
56142;BME280;42018;48.588;10.836;2023-09-19T04:41:11;96568.91;;;16.66;86.66
56142;BME280;42018;48.588;10.836;2023-09-19T04:43:46;96576.16;;;16.65;86.64
56142;BME280;42018;48.588;10.836;2023-09-19T04:51:45;96581.88;;;16.50;87.36
56142;BME280;42018;48.588;10.836;2023-09-19T05:02:28;96585.50;;;16.54;86.66
56142;BME280;42018;48.588;10.836;2023-09-19T05:05:17;96590.44;;;16.61;86.19
56142;BME280;42018;48.588;10.836;2023-09-19T05:08:14;96587.31;;;16.36;86.97
56142;BME280;42018;48.588;10.836;2023-09-19T05:11:02;96585.16;;;16.47;86.80
56142;BME280;42018;48.588;10.836;2023-09-19T05:13:48;96591.31;;;16.47;86.84
56142;BME280;42018;48.588;10.836;2023-09-19T05:16:37;96599.31;;;16.16;88.14
56142;BME280;42018;48.588;10.836;2023-09-19T05:19:26;96605.19;;;16.27;88.05
56142;BME280;42018;48.588;10.836;2023-09-19T05:24:55;96603.53;;;16.40;87.98
56142;BME280;42018;48.588;10.836;2023-09-19T05:30:20;96603.06;;;16.38;88.26
56142;BME280;42018;48.588;10.836;2023-09-19T05:33:05;96599.16;;;16.44;87.35
56142;BME280;42018;48.588;10.836;2023-09-19T05:35:55;96600.13;;;16.48;87.27
56142;BME280;42018;48.588;10.836;2023-09-19T05:38:41;96602.81;;;16.48;86.94
56142;BME280;42018;48.588;10.836;2023-09-19T05:41:30;96604.69;;;16.47;86.92
56142;BME280;42018;48.588;10.836;2023-09-19T05:44:16;96617.63;;;16.32;88.25
56142;BME280;42018;48.588;10.836;2023-09-19T05:49:46;96623.25;;;16.44;87.32
56142;BME280;42018;48.588;10.836;2023-09-19T05:52:40;96611.66;;;16.57;86.15
56142;BME280;42018;48.588;10.836;2023-09-19T05:55:37;96616.91;;;16.40;86.10
56142;BME280;42018;48.588;10.836;2023-09-19T05:58:25;96617.50;;;16.59;85.24
56142;BME280;42018;48.588;10.836;2023-09-19T06:03:46;96617.69;;;16.71;84.20
56142;BME280;42018;48.588;10.836;2023-09-19T06:09:00;96625.41;;;16.95;84.20
56142;BME280;42018;48.588;10.836;2023-09-19T06:11:45;96632.22;;;17.10;83.33
56142;BME280;42018;48.588;10.836;2023-09-19T06:17:03;96637.72;;;17.05;82.67
56142;BME280;42018;48.588;10.836;2023-09-19T06:19:49;96648.97;;;16.85;83.52
56142;BME280;42018;48.588;10.836;2023-09-19T06:22:35;96652.00;;;16.92;83.76
56142;BME280;42018;48.588;10.836;2023-09-19T06:25:22;96650.88;;;16.93;82.96
56142;BME280;42018;48.588;10.836;2023-09-19T06:28:09;96652.16;;;16.95;84.20
56142;BME280;42018;48.588;10.836;2023-09-19T06:33:44;96637.34;;;16.89;83.59
56142;BME280;42018;48.588;10.836;2023-09-19T06:36:31;96654.81;;;16.87;83.73
56142;BME280;42018;48.588;10.836;2023-09-19T06:44:27;96659.75;;;17.02;82.88
56142;BME280;42018;48.588;10.836;2023-09-19T06:47:19;96664.59;;;16.69;83.46
56142;BME280;42018;48.588;10.836;2023-09-19T06:50:12;96672.47;;;16.65;83.67
56142;BME280;42018;48.588;10.836;2023-09-19T06:53:00;96662.53;;;16.66;84.23
56142;BME280;42018;48.588;10.836;2023-09-19T06:55:47;96669.16;;;16.91;83.40
56142;BME280;42018;48.588;10.836;2023-09-19T06:58:33;96673.16;;;17.11;82.83
56142;BME280;42018;48.588;10.836;2023-09-19T07:01:18;96675.28;;;17.22;82.46
56142;BME280;42018;48.588;10.836;2023-09-19T07:04:07;96675.41;;;17.17;82.07
56142;BME280;42018;48.588;10.836;2023-09-19T07:06:55;96676.69;;;17.29;82.16
56142;BME280;42018;48.588;10.836;2023-09-19T07:14:59;96676.00;;;17.06;80.24
56142;BME280;42018;48.588;10.836;2023-09-19T07:17:45;96688.19;;;17.20;81.49
56142;BME280;42018;48.588;10.836;2023-09-19T07:20:34;96682.13;;;17.06;79.42
56142;BME280;42018;48.588;10.836;2023-09-19T07:23:22;96690.78;;;17.43;79.96
56142;BME280;42018;48.588;10.836;2023-09-19T07:26:09;96687.63;;;17.41;78.77
56142;BME280;42018;48.588;10.836;2023-09-19T07:28:54;96687.38;;;17.60;77.82
56142;BME280;42018;48.588;10.836;2023-09-19T07:31:41;96686.41;;;17.64;78.67
56142;BME280;42018;48.588;10.836;2023-09-19T07:34:27;96693.91;;;17.76;77.89
56142;BME280;42018;48.588;10.836;2023-09-19T07:37:12;96694.63;;;17.59;77.92
56142;BME280;42018;48.588;10.836;2023-09-19T07:40:00;96692.66;;;17.82;76.94
56142;BME280;42018;48.588;10.836;2023-09-19T07:42:46;96694.91;;;18.32;77.09
56142;BME280;42018;48.588;10.836;2023-09-19T07:45:34;96696.47;;;18.33;74.87
56142;BME280;42018;48.588;10.836;2023-09-19T07:48:21;96705.47;;;18.11;74.04
56142;BME280;42018;48.588;10.836;2023-09-19T07:51:09;96701.34;;;17.97;75.08
56142;BME280;42018;48.588;10.836;2023-09-19T07:53:58;96703.22;;;17.79;74.56
56142;BME280;42018;48.588;10.836;2023-09-19T07:56:44;96705.78;;;18.18;75.37
56142;BME280;42018;48.588;10.836;2023-09-19T07:59:39;96705.63;;;18.32;75.11
56142;BME280;42018;48.588;10.836;2023-09-19T08:25:55;96733.88;;;18.73;71.08
56142;BME280;42018;48.588;10.836;2023-09-19T08:31:37;96729.13;;;18.53;71.87
56142;BME280;42018;48.588;10.836;2023-09-19T08:37:32;96729.25;;;18.91;71.48
56142;BME280;42018;48.588;10.836;2023-09-19T08:40:18;96726.72;;;19.03;70.67
56142;BME280;42018;48.588;10.836;2023-09-19T08:43:10;96733.03;;;19.46;70.21
56142;BME280;42018;48.588;10.836;2023-09-19T08:49:04;96723.16;;;19.29;68.45
56142;BME280;42018;48.588;10.836;2023-09-19T08:51:54;96719.19;;;18.79;68.62
56142;BME280;42018;48.588;10.836;2023-09-19T08:54:41;96735.16;;;18.76;69.50
56142;BME280;42018;48.588;10.836;2023-09-19T08:57:38;96740.50;;;18.84;70.01
56142;BME280;42018;48.588;10.836;2023-09-19T09:00:28;96751.88;;;18.73;73.46
56142;BME280;42018;48.588;10.836;2023-09-19T09:08:22;96765.84;;;17.60;80.69
56142;BME280;42018;48.588;10.836;2023-09-19T09:11:11;96774.03;;;17.55;82.38
56142;BME280;42018;48.588;10.836;2023-09-19T09:13:58;96772.41;;;17.77;81.82
56142;BME280;42018;48.588;10.836;2023-09-19T09:19:24;96770.91;;;18.02;82.24
56142;BME280;42018;48.588;10.836;2023-09-19T09:45:26;96811.31;;;18.31;81.26
56142;BME280;42018;48.588;10.836;2023-09-19T09:53:29;96791.03;;;18.82;78.10
56142;BME280;42018;48.588;10.836;2023-09-19T10:01:47;96798.25;;;19.17;78.09
56142;BME280;42018;48.588;10.836;2023-09-19T10:04:38;96804.22;;;19.31;76.15
56142;BME280;42018;48.588;10.836;2023-09-19T10:07:37;96804.78;;;19.54;74.75
56142;BME280;42018;48.588;10.836;2023-09-19T10:12:58;96808.56;;;19.61;72.70
56142;BME280;42018;48.588;10.836;2023-09-19T10:18:25;96801.94;;;19.97;73.76
56142;BME280;42018;48.588;10.836;2023-09-19T10:21:22;96798.56;;;20.09;70.75
56142;BME280;42018;48.588;10.836;2023-09-19T10:29:01;96798.19;;;20.70;69.38
56142;BME280;42018;48.588;10.836;2023-09-19T10:37:05;96792.25;;;20.76;67.29
56142;BME280;42018;48.588;10.836;2023-09-19T10:39:57;96795.09;;;20.80;65.34
56142;BME280;42018;48.588;10.836;2023-09-19T10:42:44;96781.84;;;20.75;65.16
56142;BME280;42018;48.588;10.836;2023-09-19T10:45:33;96789.69;;;20.80;64.52
56142;BME280;42018;48.588;10.836;2023-09-19T11:24:32;96777.22;;;20.75;62.41
56142;BME280;42018;48.588;10.836;2023-09-19T11:35:10;96773.13;;;20.57;59.02
56142;BME280;42018;48.588;10.836;2023-09-19T11:51:13;96775.28;;;20.97;60.10
56142;BME280;42018;48.588;10.836;2023-09-19T11:54:04;96771.81;;;20.96;60.07
56142;BME280;42018;48.588;10.836;2023-09-19T11:56:59;96764.44;;;21.39;57.62
56142;BME280;42018;48.588;10.836;2023-09-19T11:59:46;96757.66;;;21.33;57.42
56142;BME280;42018;48.588;10.836;2023-09-19T12:02:46;96768.00;;;20.97;58.46
56142;BME280;42018;48.588;10.836;2023-09-19T12:05:32;96765.69;;;21.08;57.83
56142;BME280;42018;48.588;10.836;2023-09-19T12:08:18;96759.47;;;21.41;58.30
56142;BME280;42018;48.588;10.836;2023-09-19T12:11:06;96759.31;;;21.25;56.87
56142;BME280;42018;48.588;10.836;2023-09-19T12:13:55;96753.09;;;21.45;56.76
56142;BME280;42018;48.588;10.836;2023-09-19T12:16:54;96756.19;;;20.56;57.02
56142;BME280;42018;48.588;10.836;2023-09-19T12:19:56;96746.91;;;20.99;56.61
56142;BME280;42018;48.588;10.836;2023-09-19T12:22:43;96751.97;;;21.59;55.49
56142;BME280;42018;48.588;10.836;2023-09-19T12:25:43;96736.81;;;21.91;53.79
56142;BME280;42018;48.588;10.836;2023-09-19T12:28:41;96733.56;;;21.85;51.01
56142;BME280;42018;48.588;10.836;2023-09-19T12:31:27;96728.50;;;21.71;50.94
56142;BME280;42018;48.588;10.836;2023-09-19T12:34:16;96729.38;;;22.00;52.40
56142;BME280;42018;48.588;10.836;2023-09-19T12:37:08;96728.13;;;22.34;51.36
56142;BME280;42018;48.588;10.836;2023-09-19T12:40:08;96725.84;;;22.36;49.53
56142;BME280;42018;48.588;10.836;2023-09-19T12:43:03;96716.72;;;22.69;49.62
56142;BME280;42018;48.588;10.836;2023-09-19T12:45:49;96719.81;;;22.96;48.19
56142;BME280;42018;48.588;10.836;2023-09-19T12:48:35;96715.47;;;23.38;46.83
56142;BME280;42018;48.588;10.836;2023-09-19T12:51:22;96709.72;;;23.40;45.56
56142;BME280;42018;48.588;10.836;2023-09-19T12:54:14;96709.19;;;23.18;45.73
56142;BME280;42018;48.588;10.836;2023-09-19T12:57:05;96714.63;;;23.34;46.18
56142;BME280;42018;48.588;10.836;2023-09-19T12:59:52;96716.63;;;23.37;45.07
56142;BME280;42018;48.588;10.836;2023-09-19T13:06:03;96711.69;;;22.39;46.72
56142;BME280;42018;48.588;10.836;2023-09-19T13:09:14;96699.44;;;22.58;46.50
56142;BME280;42018;48.588;10.836;2023-09-19T13:12:00;96708.94;;;23.24;45.76
56142;BME280;42018;48.588;10.836;2023-09-19T13:15:15;96696.81;;;23.02;45.17
56142;BME280;42018;48.588;10.836;2023-09-19T13:18:11;96694.19;;;23.53;45.02
56142;BME280;42018;48.588;10.836;2023-09-19T13:21:06;96697.25;;;23.67;43.97
56142;BME280;42018;48.588;10.836;2023-09-19T13:24:01;96688.97;;;23.28;45.46
56142;BME280;42018;48.588;10.836;2023-09-19T13:26:49;96694.44;;;23.48;44.95
56142;BME280;42018;48.588;10.836;2023-09-19T13:29:35;96684.16;;;23.22;44.13
56142;BME280;42018;48.588;10.836;2023-09-19T13:32:23;96685.47;;;23.59;44.69
56142;BME280;42018;48.588;10.836;2023-09-19T13:38:01;96687.50;;;23.98;43.73
56142;BME280;42018;48.588;10.836;2023-09-19T13:40:46;96680.00;;;24.26;42.67
56142;BME280;42018;48.588;10.836;2023-09-19T13:43:32;96685.16;;;23.96;42.60
56142;BME280;42018;48.588;10.836;2023-09-19T13:46:39;96685.13;;;24.31;43.57
56142;BME280;42018;48.588;10.836;2023-09-19T13:49:25;96673.25;;;24.55;43.17
56142;BME280;42018;48.588;10.836;2023-09-19T13:52:13;96678.88;;;24.47;42.79
56142;BME280;42018;48.588;10.836;2023-09-19T13:55:01;96672.69;;;24.66;42.87
56142;BME280;42018;48.588;10.836;2023-09-19T13:57:50;96675.19;;;24.00;42.60
56142;BME280;42018;48.588;10.836;2023-09-19T14:00:37;96670.69;;;24.08;43.46
56142;BME280;42018;48.588;10.836;2023-09-19T14:03:23;96669.06;;;23.52;44.01
56142;BME280;42018;48.588;10.836;2023-09-19T14:06:09;96667.34;;;23.28;45.08
56142;BME280;42018;48.588;10.836;2023-09-19T14:09:08;96666.25;;;23.80;42.17
56142;BME280;42018;48.588;10.836;2023-09-19T14:11:55;96664.66;;;24.14;42.17
56142;BME280;42018;48.588;10.836;2023-09-19T14:18:01;96656.22;;;24.00;43.31
56142;BME280;42018;48.588;10.836;2023-09-19T14:20:46;96656.41;;;23.72;43.32
56142;BME280;42018;48.588;10.836;2023-09-19T14:23:36;96648.69;;;23.07;43.74
56142;BME280;42018;48.588;10.836;2023-09-19T14:26:21;96643.06;;;23.48;44.18
56142;BME280;42018;48.588;10.836;2023-09-19T14:29:08;96651.00;;;23.56;44.53
56142;BME280;42018;48.588;10.836;2023-09-19T14:31:54;96649.63;;;23.47;44.23
56142;BME280;42018;48.588;10.836;2023-09-19T14:34:43;96650.63;;;22.79;44.04
56142;BME280;42018;48.588;10.836;2023-09-19T14:37:29;96656.63;;;22.72;44.86
56142;BME280;42018;48.588;10.836;2023-09-19T14:42:56;96641.09;;;23.13;45.45
56142;BME280;42018;48.588;10.836;2023-09-19T14:45:42;96643.44;;;22.99;44.78
56142;BME280;42018;48.588;10.836;2023-09-19T14:48:27;96648.94;;;23.34;45.55
56142;BME280;42018;48.588;10.836;2023-09-19T14:51:13;96641.63;;;23.34;43.99
56142;BME280;42018;48.588;10.836;2023-09-19T14:53:59;96644.47;;;23.41;44.71
56142;BME280;42018;48.588;10.836;2023-09-19T14:56:47;96642.03;;;23.36;44.69
56142;BME280;42018;48.588;10.836;2023-09-19T14:59:38;96635.25;;;23.27;44.22
56142;BME280;42018;48.588;10.836;2023-09-19T15:02:24;96634.97;;;22.84;44.83
56142;BME280;42018;48.588;10.836;2023-09-19T15:05:10;96630.63;;;23.11;46.13
56142;BME280;42018;48.588;10.836;2023-09-19T15:07:56;96639.94;;;22.98;45.98
56142;BME280;42018;48.588;10.836;2023-09-19T15:10:49;96637.22;;;22.82;46.52
56142;BME280;42018;48.588;10.836;2023-09-19T15:13:35;96643.13;;;22.72;46.22
56142;BME280;42018;48.588;10.836;2023-09-19T15:16:21;96647.38;;;22.73;46.74
56142;BME280;42018;48.588;10.836;2023-09-19T15:19:07;96637.53;;;22.65;46.68
56142;BME280;42018;48.588;10.836;2023-09-19T15:21:52;96645.63;;;22.93;46.63
56142;BME280;42018;48.588;10.836;2023-09-19T15:24:38;96637.50;;;22.93;46.33
56142;BME280;42018;48.588;10.836;2023-09-19T15:30:00;96638.56;;;22.60;47.15
56142;BME280;42018;48.588;10.836;2023-09-19T15:33:00;96634.91;;;22.53;45.78
56142;BME280;42018;48.588;10.836;2023-09-19T15:35:45;96634.44;;;22.51;47.46
56142;BME280;42018;48.588;10.836;2023-09-19T15:38:31;96633.38;;;22.39;46.31
56142;BME280;42018;48.588;10.836;2023-09-19T15:41:17;96634.44;;;22.51;46.59
56142;BME280;42018;48.588;10.836;2023-09-19T15:44:03;96635.19;;;22.79;46.55
56142;BME280;42018;48.588;10.836;2023-09-19T15:46:49;96631.13;;;22.85;45.91
56142;BME280;42018;48.588;10.836;2023-09-19T15:49:34;96631.44;;;22.84;45.07
56142;BME280;42018;48.588;10.836;2023-09-19T15:52:20;96635.66;;;22.81;45.92
56142;BME280;42018;48.588;10.836;2023-09-19T15:55:06;96632.69;;;22.70;45.54
56142;BME280;42018;48.588;10.836;2023-09-19T15:57:52;96631.00;;;22.66;44.87
56142;BME280;42018;48.588;10.836;2023-09-19T16:00:40;96632.50;;;22.35;44.98
56142;BME280;42018;48.588;10.836;2023-09-19T16:03:25;96627.31;;;22.42;44.98
56142;BME280;42018;48.588;10.836;2023-09-19T16:06:15;96634.16;;;22.40;46.00
56142;BME280;42018;48.588;10.836;2023-09-19T16:09:04;96635.63;;;22.37;46.10
56142;BME280;42018;48.588;10.836;2023-09-19T16:11:50;96627.00;;;22.32;47.24
56142;BME280;42018;48.588;10.836;2023-09-19T16:14:36;96624.25;;;22.16;46.93
56142;BME280;42018;48.588;10.836;2023-09-19T16:17:22;96635.41;;;22.14;47.01
56142;BME280;42018;48.588;10.836;2023-09-19T16:20:08;96627.66;;;22.00;46.23
56142;BME280;42018;48.588;10.836;2023-09-19T16:22:57;96628.38;;;21.85;46.93
56142;BME280;42018;48.588;10.836;2023-09-19T16:25:42;96623.41;;;21.87;47.28
56142;BME280;42018;48.588;10.836;2023-09-19T16:28:29;96630.91;;;21.94;47.62
56142;BME280;42018;48.588;10.836;2023-09-19T16:31:15;96629.78;;;21.95;47.28
56142;BME280;42018;48.588;10.836;2023-09-19T16:34:02;96618.69;;;21.96;48.19
56142;BME280;42018;48.588;10.836;2023-09-19T16:36:47;96620.13;;;21.94;47.29
56142;BME280;42018;48.588;10.836;2023-09-19T16:39:33;96619.41;;;21.81;47.86
56142;BME280;42018;48.588;10.836;2023-09-19T16:42:19;96618.47;;;21.77;47.93
56142;BME280;42018;48.588;10.836;2023-09-19T16:45:05;96623.78;;;21.73;48.41
56142;BME280;42018;48.588;10.836;2023-09-19T16:47:53;96616.72;;;21.69;49.19
56142;BME280;42018;48.588;10.836;2023-09-19T16:50:40;96622.78;;;21.66;49.85
56142;BME280;42018;48.588;10.836;2023-09-19T16:53:26;96626.50;;;21.61;50.45
56142;BME280;42018;48.588;10.836;2023-09-19T16:56:14;96619.66;;;21.64;50.87
56142;BME280;42018;48.588;10.836;2023-09-19T16:59:01;96626.03;;;21.59;51.80
56142;BME280;42018;48.588;10.836;2023-09-19T17:01:49;96624.38;;;21.55;51.97
56142;BME280;42018;48.588;10.836;2023-09-19T17:04:35;96627.75;;;21.51;52.92
56142;BME280;42018;48.588;10.836;2023-09-19T17:07:23;96624.16;;;21.47;54.11
56142;BME280;42018;48.588;10.836;2023-09-19T17:28:30;96621.09;;;21.00;56.17
56142;BME280;42018;48.588;10.836;2023-09-19T17:31:27;96624.81;;;20.95;57.30
